Time;durP1;ratioP1;P1;durP2;ratioP2;P2;SDS_P1;SDS_P2;PMS_P1;PMS_P2;Temp;Humidity;BMP_temperature;BMP_pressure;BME280_temperature;BME280_humidity;BME280_pressure;Samples;Min_cycle;Max_cycle;Signal;HPM_P1;HPM_P2
2021/01/19 00:00:38;;;;;;;24.37;12.17;;;4.70;99.90;;;;;;5073026;28;20210;-87
2021/01/19 00:03:03;;;;;;;27.67;12.57;;;4.60;99.90;;;;;;5076511;28;20186;-85
2021/01/19 00:05:29;;;;;;;26.17;12.40;;;4.60;99.90;;;;;;5084686;28;20196;-86
2021/01/19 00:07:55;;;;;;;27.50;12.77;;;4.60;99.90;;;;;;5092922;28;20181;-86
2021/01/19 00:10:20;;;;;;;31.67;13.23;;;4.70;99.90;;;;;;5080910;28;20242;-87
2021/01/19 00:12:46;;;;;;;27.33;13.87;;;4.70;99.90;;;;;;5083921;28;20313;-87
2021/01/19 00:15:12;;;;;;;29.27;13.87;;;4.70;99.90;;;;;;5092174;28;20178;-86
2021/01/19 00:17:38;;;;;;;30.20;14.47;;;4.60;99.90;;;;;;5085304;28;20186;-86
2021/01/19 00:20:05;;;;;;;31.57;14.20;;;4.60;99.90;;;;;;5089901;28;20274;-86
2021/01/19 00:22:32;;;;;;;34.00;16.57;;;4.60;99.90;;;;;;5082502;28;20629;-85
2021/01/19 00:24:59;;;;;;;38.47;16.50;;;4.60;99.90;;;;;;5078871;28;20204;-86
2021/01/19 00:27:24;;;;;;;32.43;17.20;;;4.50;99.90;;;;;;5088537;28;20526;-85
2021/01/19 00:29:50;;;;;;;34.27;15.13;;;4.40;99.90;;;;;;5055326;28;20193;-87
2021/01/19 00:32:16;;;;;;;39.53;17.63;;;4.40;99.90;;;;;;5080265;28;20583;-86
2021/01/19 00:34:41;;;;;;;36.43;16.80;;;4.50;99.90;;;;;;5070744;28;20232;-86
2021/01/19 00:37:07;;;;;;;39.90;17.13;;;4.50;99.90;;;;;;5062774;28;20201;-85
2021/01/19 00:39:33;;;;;;;34.93;14.70;;;4.60;99.90;;;;;;5075176;28;20692;-85
2021/01/19 00:41:59;;;;;;;32.07;14.83;;;4.60;99.90;;;;;;5087311;28;20186;-85
2021/01/19 00:44:24;;;;;;;29.50;14.97;;;4.50;99.90;;;;;;5053898;28;20273;-85
2021/01/19 00:46:51;;;;;;;32.97;14.50;;;4.50;99.90;;;;;;5075895;28;20186;-87
2021/01/19 00:49:18;;;;;;;39.40;15.07;;;4.40;99.90;;;;;;5081767;28;20316;-86
2021/01/19 00:51:44;;;;;;;28.17;14.07;;;4.30;99.90;;;;;;5084909;28;20540;-86
2021/01/19 00:54:10;;;;;;;30.30;14.50;;;4.40;99.90;;;;;;5092328;28;20194;-86
2021/01/19 00:56:40;;;;;;;31.57;13.90;;;4.50;99.90;;;;;;5092178;28;20178;-87
2021/01/19 00:59:06;;;;;;;36.60;15.00;;;4.60;99.90;;;;;;5081850;28;20217;-86
2021/01/19 01:01:32;;;;;;;34.43;15.63;;;4.70;99.90;;;;;;5092606;28;20238;-86
2021/01/19 01:03:58;;;;;;;36.23;15.03;;;4.60;99.90;;;;;;5072958;28;20188;-86
2021/01/19 01:06:24;;;;;;;35.00;14.83;;;4.60;99.90;;;;;;5054644;28;20275;-87
2021/01/19 01:08:49;;;;;;;27.93;14.27;;;4.70;99.90;;;;;;5061389;28;20184;-87
2021/01/19 01:11:15;;;;;;;29.47;13.93;;;4.70;99.90;;;;;;5077137;28;20279;-87
2021/01/19 01:13:41;;;;;;;28.57;13.60;;;4.70;99.90;;;;;;5071147;28;20193;-87
2021/01/19 01:16:12;;;;;;;30.53;13.30;;;4.90;99.90;;;;;;5071501;28;20184;-86
2021/01/19 01:18:38;;;;;;;31.37;13.37;;;4.90;99.90;;;;;;5082278;28;20249;-87
2021/01/19 01:21:03;;;;;;;27.60;13.17;;;4.90;99.90;;;;;;5073902;28;20583;-86
2021/01/19 01:23:29;;;;;;;30.77;13.57;;;4.90;99.90;;;;;;5090367;28;20188;-87
2021/01/19 01:25:55;;;;;;;28.70;13.37;;;4.90;99.90;;;;;;5081425;28;20630;-86
2021/01/19 01:28:20;;;;;;;26.30;13.43;;;5.00;99.90;;;;;;5091485;28;20303;-87
2021/01/19 01:30:46;;;;;;;34.93;15.07;;;5.00;99.90;;;;;;5085410;28;20545;-87
2021/01/19 01:33:11;;;;;;;29.23;14.50;;;5.10;99.90;;;;;;5082551;28;20182;-86
2021/01/19 01:35:37;;;;;;;30.50;15.97;;;5.20;99.90;;;;;;5037991;28;20205;-87
2021/01/19 01:38:03;;;;;;;37.50;15.90;;;5.10;99.90;;;;;;5071012;28;20197;-87
2021/01/19 01:40:29;;;;;;;26.73;14.50;;;5.10;99.90;;;;;;5084520;28;20220;-87
2021/01/19 01:43:08;;;;;;;32.10;15.87;;;5.10;99.90;;;;;;5086229;28;20191;-87
2021/01/19 01:45:34;;;;;;;32.60;15.27;;;5.10;99.90;;;;;;5086528;28;20182;-86
2021/01/19 01:48:00;;;;;;;24.47;12.50;;;5.10;99.90;;;;;;5075355;28;20205;-88
2021/01/19 01:50:26;;;;;;;24.53;12.13;;;5.20;99.90;;;;;;5094976;28;20592;-87
2021/01/19 01:52:52;;;;;;;29.87;12.13;;;5.00;99.90;;;;;;5076901;28;20239;-86
2021/01/19 01:55:19;;;;;;;23.07;12.50;;;5.00;99.90;;;;;;5075086;28;20232;-87
2021/01/19 01:57:45;;;;;;;25.17;12.60;;;5.00;99.90;;;;;;5075009;28;20187;-88
2021/01/19 02:00:12;;;;;;;25.60;13.10;;;5.00;99.90;;;;;;5077069;28;20208;-86
2021/01/19 02:02:55;;;;;;;26.43;13.03;;;5.00;99.90;;;;;;5095093;28;20701;-87
2021/01/19 02:05:22;;;;;;;24.50;12.80;;;5.00;99.90;;;;;;5079929;28;20173;-86
2021/01/19 02:08:10;;;;;;;24.73;13.07;;;5.10;99.90;;;;;;5074228;28;20185;-87
2021/01/19 02:10:59;;;;;;;23.77;13.00;;;5.00;99.90;;;;;;5079309;28;20644;-87
2021/01/19 02:13:30;;;;;;;32.60;14.47;;;5.00;99.90;;;;;;5095047;28;20174;-87
2021/01/19 02:16:14;;;;;;;35.33;16.23;;;5.00;99.90;;;;;;5079025;28;20216;-86
2021/01/19 02:18:57;;;;;;;29.07;15.63;;;5.00;99.90;;;;;;5084528;28;20209;-86
2021/01/19 02:22:05;;;;;;;36.13;16.47;;;5.00;99.90;;;;;;5089071;28;20181;-86
2021/01/19 02:25:21;;;;;;;36.70;17.93;;;5.00;99.90;;;;;;5083927;28;20199;-86
2021/01/19 02:28:08;;;;;;;31.07;17.60;;;5.00;99.90;;;;;;5061792;28;20181;-86
2021/01/19 02:30:49;;;;;;;39.23;18.23;;;5.00;99.90;;;;;;5088401;28;20177;-86
2021/01/19 02:33:53;;;;;;;38.53;19.30;;;5.00;99.90;;;;;;5092538;28;20170;-88
2021/01/19 02:36:40;;;;;;;38.97;19.77;;;5.00;99.90;;;;;;5073134;28;20335;-86
2021/01/19 02:39:08;;;;;;;41.13;20.00;;;5.10;99.90;;;;;;5091412;28;20242;-82
2021/01/19 02:41:41;;;;;;;39.57;20.57;;;5.10;99.90;;;;;;5095982;28;20165;-86
2021/01/19 02:44:22;;;;;;;44.90;22.10;;;5.10;99.90;;;;;;5095423;28;20221;-83
2021/01/19 02:46:54;;;;;;;40.07;18.60;;;5.00;99.90;;;;;;5084652;28;20177;-85
2021/01/19 02:49:21;;;;;;;41.23;17.97;;;5.00;99.90;;;;;;5081221;28;20197;-83
2021/01/19 02:51:49;;;;;;;31.50;18.57;;;5.00;99.90;;;;;;5075179;28;20178;-85
2021/01/19 02:54:16;;;;;;;36.47;17.63;;;5.10;99.90;;;;;;5075026;28;20545;-85
2021/01/19 02:57:05;;;;;;;34.73;16.33;;;5.00;99.90;;;;;;5076326;28;20668;-85
2021/01/19 02:59:40;;;;;;;37.60;16.93;;;5.00;99.90;;;;;;5093388;28;20261;-84
2021/01/19 03:02:13;;;;;;;32.53;16.00;;;5.00;99.90;;;;;;5084925;28;20177;-84
2021/01/19 03:04:41;;;;;;;37.27;16.87;;;5.00;99.90;;;;;;5076223;28;20174;-85
2021/01/19 03:07:08;;;;;;;32.43;17.37;;;5.00;99.90;;;;;;5077007;28;20201;-85
2021/01/19 03:09:40;;;;;;;35.87;18.47;;;5.10;99.90;;;;;;5074986;28;20232;-86
2021/01/19 03:12:12;;;;;;;39.83;19.97;;;5.10;99.90;;;;;;5073935;28;20181;-84
2021/01/19 03:14:39;;;;;;;40.90;21.00;;;5.00;99.90;;;;;;5080533;28;20188;-85
2021/01/19 03:17:06;;;;;;;40.90;21.53;;;5.10;99.90;;;;;;5074943;28;20191;-85
2021/01/19 03:19:39;;;;;;;43.57;21.33;;;5.10;99.90;;;;;;5073249;28;20299;-86
2021/01/19 03:22:06;;;;;;;42.80;21.70;;;5.00;99.90;;;;;;5074883;28;20265;-84
2021/01/19 03:24:31;;;;;;;46.00;20.83;;;5.10;99.90;;;;;;5082843;28;20178;-85
2021/01/19 03:26:57;;;;;;;38.83;20.10;;;5.10;99.90;;;;;;5086557;28;20638;-84
2021/01/19 03:29:23;;;;;;;41.77;20.83;;;5.10;99.90;;;;;;5074466;28;20193;-85
2021/01/19 03:31:49;;;;;;;36.10;17.70;;;5.20;99.90;;;;;;5073472;28;20182;-84
2021/01/19 03:34:15;;;;;;;35.70;17.90;;;5.30;99.90;;;;;;5078628;28;20188;-85
2021/01/19 03:36:40;;;;;;;33.23;16.77;;;5.30;99.90;;;;;;5094092;28;20573;-85
2021/01/19 03:39:06;;;;;;;33.40;15.50;;;5.20;99.90;;;;;;5094458;28;20205;-86
2021/01/19 03:41:32;;;;;;;28.30;14.40;;;5.30;99.90;;;;;;5093394;28;20188;-85
2021/01/19 03:43:57;;;;;;;27.73;13.67;;;5.30;99.90;;;;;;5094536;28;20648;-87
2021/01/19 03:46:24;;;;;;;28.93;14.23;;;5.40;99.90;;;;;;5082353;28;20673;-84
2021/01/19 03:48:49;;;;;;;29.57;14.13;;;5.30;99.90;;;;;;5086694;28;20189;-86
2021/01/19 03:51:15;;;;;;;30.17;13.03;;;5.30;99.90;;;;;;5072689;28;20201;-85
2021/01/19 03:53:41;;;;;;;25.40;13.20;;;5.40;99.90;;;;;;5076896;28;20200;-85
2021/01/19 03:56:07;;;;;;;25.47;11.90;;;5.40;99.90;;;;;;5072716;28;20182;-84
2021/01/19 03:58:32;;;;;;;22.03;12.43;;;5.40;99.90;;;;;;5055953;28;20193;-84
2021/01/19 04:00:58;;;;;;;20.90;11.47;;;5.50;99.90;;;;;;5055087;28;20209;-84
2021/01/19 04:03:24;;;;;;;21.87;10.30;;;5.60;99.90;;;;;;5072266;28;20229;-86
2021/01/19 04:05:49;;;;;;;23.57;10.53;;;5.60;99.90;;;;;;5073443;28;20193;-85
2021/01/19 04:08:15;;;;;;;22.60;9.70;;;5.60;99.90;;;;;;5085936;28;20173;-85
2021/01/19 04:10:41;;;;;;;16.80;9.43;;;5.60;99.90;;;;;;5087698;28;20183;-85
2021/01/19 04:13:06;;;;;;;18.27;8.93;;;5.70;99.90;;;;;;5072040;28;20186;-85
2021/01/19 04:15:32;;;;;;;18.97;8.73;;;5.70;99.90;;;;;;5073537;28;20546;-86
2021/01/19 04:17:57;;;;;;;19.17;8.70;;;5.70;99.90;;;;;;5074891;28;20186;-86
2021/01/19 04:20:24;;;;;;;16.60;7.63;;;5.80;99.90;;;;;;5084874;28;20291;-87
2021/01/19 04:22:50;;;;;;;13.33;7.73;;;5.90;99.90;;;;;;5073585;28;20174;-87
2021/01/19 04:25:16;;;;;;;17.10;6.87;;;5.90;99.90;;;;;;5055778;28;20179;-85
2021/01/19 04:27:41;;;;;;;17.77;7.53;;;5.90;99.90;;;;;;5076408;28;20182;-85
2021/01/19 04:30:07;;;;;;;17.63;7.00;;;6.00;99.90;;;;;;5092195;28;20210;-85
2021/01/19 04:32:37;;;;;;;20.90;6.80;;;6.00;99.90;;;;;;5075587;28;20206;-86
2021/01/19 04:35:04;;;;;;;14.70;7.20;;;6.10;99.90;;;;;;5090327;28;20210;-86
2021/01/19 04:37:29;;;;;;;13.70;7.03;;;6.00;99.90;;;;;;5085524;28;20198;-85
2021/01/19 04:39:56;;;;;;;13.57;6.83;;;6.00;99.90;;;;;;5074466;28;20364;-85
2021/01/19 04:42:21;;;;;;;15.50;6.93;;;6.10;99.90;;;;;;5093046;28;20622;-85
2021/01/19 04:44:49;;;;;;;18.93;6.90;;;6.00;99.90;;;;;;5092224;28;20200;-86
2021/01/19 04:47:16;;;;;;;13.47;5.97;;;6.00;99.90;;;;;;5087246;28;20193;-84
2021/01/19 04:49:44;;;;;;;13.50;5.90;;;6.00;99.90;;;;;;5087736;28;20604;-86
2021/01/19 04:52:15;;;;;;;16.60;6.40;;;6.00;99.90;;;;;;5076330;28;20177;-84
2021/01/19 04:55:07;;;;;;;16.47;6.27;;;6.00;99.90;;;;;;5091589;28;20177;-85
2021/01/19 04:57:35;;;;;;;12.20;5.70;;;6.00;99.90;;;;;;5048675;28;20190;-85
2021/01/19 05:00:10;;;;;;;18.77;5.33;;;5.90;99.90;;;;;;5074046;28;20236;-86
2021/01/19 05:02:50;;;;;;;13.70;5.63;;;6.00;99.90;;;;;;5068080;28;20181;-87
2021/01/19 05:05:35;;;;;;;14.90;5.87;;;6.00;99.90;;;;;;5072029;28;20626;-86
2021/01/19 05:08:09;;;;;;;23.80;6.20;;;6.00;99.90;;;;;;5084273;28;20212;-85
2021/01/19 05:10:39;;;;;;;12.57;5.13;;;6.10;99.90;;;;;;5091925;28;20185;-84
2021/01/19 05:13:12;;;;;;;14.63;5.43;;;6.10;99.90;;;;;;5092150;28;20178;-85
2021/01/19 05:15:48;;;;;;;11.67;5.07;;;6.00;99.90;;;;;;5070695;28;20190;-85
2021/01/19 05:18:17;;;;;;;10.77;4.70;;;6.00;99.90;;;;;;5089620;28;20173;-85
2021/01/19 05:20:50;;;;;;;15.60;5.90;;;5.90;99.90;;;;;;5093460;28;20200;-85
2021/01/19 05:23:22;;;;;;;15.63;5.23;;;5.90;99.90;;;;;;5094029;28;20170;-85
2021/01/19 05:26:01;;;;;;;11.17;4.90;;;6.00;99.90;;;;;;5095936;28;20645;-84
2021/01/19 05:28:35;;;;;;;9.13;4.63;;;6.00;99.90;;;;;;5094780;28;20177;-84
2021/01/19 05:31:28;;;;;;;14.30;5.37;;;5.90;99.90;;;;;;5090727;28;20248;-83
2021/01/19 05:33:56;;;;;;;14.87;5.17;;;6.00;99.90;;;;;;5072658;28;20217;-85
2021/01/19 05:36:25;;;;;;;17.07;5.63;;;5.90;99.90;;;;;;5085322;28;20294;-83
2021/01/19 05:38:56;;;;;;;13.90;5.03;;;5.90;99.90;;;;;;5095572;28;20210;-84
2021/01/19 05:41:40;;;;;;;18.43;5.40;;;6.00;99.90;;;;;;5095216;28;20174;-84
2021/01/19 05:44:15;;;;;;;12.23;4.97;;;5.90;99.90;;;;;;5096540;28;20170;-84
2021/01/19 05:46:48;;;;;;;15.03;4.80;;;5.90;99.90;;;;;;5081431;28;20174;-83
2021/01/19 05:49:25;;;;;;;15.97;5.50;;;6.00;99.90;;;;;;5083055;28;20182;-83
2021/01/19 05:51:58;;;;;;;12.80;4.90;;;6.00;99.90;;;;;;5086408;28;20174;-84
2021/01/19 05:54:29;;;;;;;14.87;5.73;;;6.00;99.90;;;;;;5080160;28;20661;-85
2021/01/19 05:57:00;;;;;;;16.23;4.90;;;6.00;99.90;;;;;;5081007;28;20657;-82
2021/01/19 05:59:34;;;;;;;13.60;4.67;;;5.90;99.90;;;;;;5095527;28;20229;-84
2021/01/19 06:02:02;;;;;;;10.00;4.60;;;5.80;99.90;;;;;;5095272;28;20656;-84
2021/01/19 06:04:39;;;;;;;13.13;4.87;;;5.80;99.90;;;;;;5092696;28;20234;-84
2021/01/19 06:07:06;;;;;;;16.00;5.17;;;5.80;99.90;;;;;;5094126;28;20633;-83
2021/01/19 06:09:33;;;;;;;11.70;5.00;;;5.90;99.90;;;;;;5094834;28;20190;-85
2021/01/19 06:11:58;;;;;;;16.93;5.10;;;5.90;99.90;;;;;;5094206;28;20174;-85
2021/01/19 06:14:26;;;;;;;13.80;4.93;;;5.90;99.90;;;;;;5062908;28;20205;-86
2021/01/19 06:17:13;;;;;;;12.83;4.47;;;6.00;99.90;;;;;;5076036;28;20179;-85
2021/01/19 06:19:40;;;;;;;11.77;4.80;;;6.00;99.90;;;;;;5092879;28;20291;-85
2021/01/19 06:22:19;;;;;;;10.43;4.60;;;5.90;99.90;;;;;;5102079;28;20166;-85
2021/01/19 06:24:46;;;;;;;12.10;4.57;;;5.90;99.90;;;;;;5101965;28;20170;-85
2021/01/19 06:27:22;;;;;;;8.70;4.53;;;5.90;99.90;;;;;;5096492;28;20178;-83
2021/01/19 06:29:49;;;;;;;16.13;4.87;;;5.80;99.90;;;;;;5076340;28;20174;-84
2021/01/19 06:32:16;;;;;;;10.90;4.40;;;5.90;99.90;;;;;;5088236;28;20177;-85
2021/01/19 06:34:41;;;;;;;12.43;4.80;;;5.90;99.90;;;;;;5082953;28;20174;-83
2021/01/19 06:37:09;;;;;;;12.77;4.73;;;5.80;99.90;;;;;;5091118;28;20559;-85
2021/01/19 06:39:41;;;;;;;15.27;4.67;;;5.80;99.90;;;;;;5096351;28;20199;-84
2021/01/19 06:42:13;;;;;;;13.13;4.20;;;5.80;99.90;;;;;;5093519;28;20537;-84
2021/01/19 06:44:47;;;;;;;15.30;4.57;;;5.80;99.90;;;;;;5096824;28;20254;-84
2021/01/19 06:47:18;;;;;;;10.93;4.30;;;5.90;99.90;;;;;;5094046;28;20184;-85
2021/01/19 06:49:44;;;;;;;12.73;4.53;;;5.80;99.90;;;;;;5075657;28;20178;-86
2021/01/19 06:52:14;;;;;;;16.10;4.80;;;5.80;99.90;;;;;;5058947;28;20186;-84
2021/01/19 06:54:57;;;;;;;7.83;3.90;;;5.80;99.90;;;;;;5075001;28;20551;-87
2021/01/19 06:57:44;;;;;;;7.93;4.00;;;5.80;99.90;;;;;;5091366;28;20190;-86
2021/01/19 07:00:20;;;;;;;11.33;4.70;;;5.90;99.90;;;;;;5092294;28;20217;-84
2021/01/19 07:02:51;;;;;;;9.43;4.23;;;5.80;99.90;;;;;;5095220;28;20349;-84
2021/01/19 07:05:19;;;;;;;10.17;3.80;;;5.90;99.90;;;;;;5094712;28;20219;-86
2021/01/19 07:07:56;;;;;;;12.57;4.90;;;5.90;99.90;;;;;;5094296;28;20255;-84
2021/01/19 07:10:43;;;;;;;9.77;3.80;;;5.90;99.90;;;;;;5081565;28;20190;-85
2021/01/19 07:13:21;;;;;;;10.10;4.30;;;5.90;99.90;;;;;;5075465;28;20265;-84
2021/01/19 07:15:58;;;;;;;8.43;3.80;;;5.90;99.90;;;;;;5078827;28;20187;-85
2021/01/19 07:18:36;;;;;;;9.67;3.97;;;5.90;99.90;;;;;;5097144;28;20171;-85
2021/01/19 07:21:07;;;;;;;9.03;4.20;;;5.90;99.90;;;;;;5096500;28;20184;-85
2021/01/19 07:23:45;;;;;;;12.97;4.23;;;5.90;99.90;;;;;;5065175;28;20186;-85
2021/01/19 07:26:21;;;;;;;6.50;3.67;;;6.00;99.90;;;;;;5078072;28;20181;-82
2021/01/19 07:28:48;;;;;;;10.87;4.07;;;5.90;99.90;;;;;;5077820;28;20688;-84
2021/01/19 07:31:17;;;;;;;10.70;4.20;;;5.90;99.90;;;;;;5074781;28;20229;-85
2021/01/19 07:33:47;;;;;;;6.57;3.50;;;5.90;99.90;;;;;;5081669;28;20182;-86
2021/01/19 07:36:24;;;;;;;10.63;3.70;;;5.90;99.90;;;;;;5093286;28;20206;-84
2021/01/19 07:38:50;;;;;;;6.67;3.70;;;5.90;99.90;;;;;;5094799;28;20212;-86
2021/01/19 07:41:31;;;;;;;6.90;3.90;;;5.90;99.90;;;;;;5095200;28;20601;-86
2021/01/19 07:43:57;;;;;;;10.60;3.87;;;6.00;99.90;;;;;;5086818;28;20186;-88
2021/01/19 07:46:28;;;;;;;9.03;4.17;;;6.00;99.90;;;;;;5086263;28;20290;-86
2021/01/19 07:49:03;;;;;;;9.23;4.73;;;6.00;99.90;;;;;;5082468;28;20179;-86
2021/01/19 07:51:46;;;;;;;7.80;3.60;;;6.10;99.90;;;;;;5081883;28;20185;-86
2021/01/19 07:54:13;;;;;;;9.83;3.90;;;6.00;99.90;;;;;;5081562;28;20193;-87
2021/01/19 07:56:40;;;;;;;7.73;3.50;;;6.10;99.90;;;;;;5082589;28;20182;-86
2021/01/19 07:59:20;;;;;;;8.47;3.97;;;6.10;99.90;;;;;;5079891;28;20220;-86
2021/01/19 08:01:59;;;;;;;5.83;3.63;;;6.00;99.90;;;;;;5074835;28;20174;-88
2021/01/19 08:04:33;;;;;;;6.43;3.70;;;6.10;99.90;;;;;;5082448;28;20345;-86
2021/01/19 08:07:10;;;;;;;9.17;3.63;;;6.10;99.90;;;;;;5090374;28;20183;-89
2021/01/19 08:09:36;;;;;;;5.27;3.37;;;6.10;99.90;;;;;;5079599;28;20274;-87
2021/01/19 08:12:06;;;;;;;8.37;3.80;;;6.10;99.90;;;;;;5086456;28;20268;-87
2021/01/19 08:14:36;;;;;;;8.83;3.73;;;6.20;99.90;;;;;;5083111;28;20696;-85
2021/01/19 08:17:04;;;;;;;4.43;3.37;;;6.20;99.90;;;;;;5089407;28;20214;-87
2021/01/19 08:19:44;;;;;;;6.23;3.97;;;6.20;99.90;;;;;;5083657;28;20278;-89
2021/01/19 08:22:11;;;;;;;5.37;3.67;;;6.30;99.90;;;;;;5076757;28;20178;-87
2021/01/19 08:24:41;;;;;;;8.90;3.63;;;6.40;99.90;;;;;;5069220;28;20207;-89
2021/01/19 08:27:07;;;;;;;8.27;3.47;;;6.40;99.90;;;;;;5078276;28;20209;-88
2021/01/19 08:29:33;;;;;;;6.53;4.30;;;6.30;99.90;;;;;;5078624;28;20187;-86
2021/01/19 08:32:00;;;;;;;8.37;4.20;;;6.40;99.90;;;;;;5084727;28;20219;-85
2021/01/19 08:34:27;;;;;;;7.57;4.20;;;6.40;99.90;;;;;;5091995;28;20190;-87
2021/01/19 08:36:55;;;;;;;5.90;3.93;;;6.50;99.90;;;;;;5083448;28;20306;-89
2021/01/19 08:39:21;;;;;;;6.87;3.97;;;6.40;99.90;;;;;;5082202;28;20206;-87
2021/01/19 08:41:48;;;;;;;5.43;3.80;;;6.40;99.90;;;;;;5078013;28;20183;-87
2021/01/19 08:44:15;;;;;;;6.40;3.73;;;6.50;99.90;;;;;;5074570;28;20183;-87
2021/01/19 08:46:42;;;;;;;8.47;4.40;;;6.60;99.90;;;;;;5079411;28;20196;-87
2021/01/19 08:49:13;;;;;;;6.57;3.60;;;6.60;99.90;;;;;;5083852;28;20626;-87
2021/01/19 08:51:45;;;;;;;4.70;3.20;;;6.70;99.90;;;;;;5083835;28;20653;-87
2021/01/19 08:54:10;;;;;;;5.77;3.50;;;6.70;99.90;;;;;;5084118;28;20186;-87
2021/01/19 08:56:44;;;;;;;6.37;2.90;;;6.80;99.90;;;;;;5083223;28;20655;-87
2021/01/19 08:59:14;;;;;;;3.50;3.17;;;6.80;99.90;;;;;;5079512;28;20208;-89
2021/01/19 09:01:55;;;;;;;5.03;3.13;;;6.90;99.90;;;;;;5091440;28;20197;-87
2021/01/19 09:04:24;;;;;;;5.83;3.20;;;7.00;99.90;;;;;;5068495;28;20179;-88
2021/01/19 09:07:10;;;;;;;6.77;3.30;;;7.00;99.90;;;;;;5086652;28;20269;-87
2021/01/19 09:09:38;;;;;;;5.83;3.60;;;7.10;99.90;;;;;;5084708;28;20177;-89
2021/01/19 09:12:14;;;;;;;4.50;3.00;;;7.10;99.90;;;;;;5079482;28;20183;-87
2021/01/19 09:14:40;;;;;;;6.53;3.03;;;7.10;99.90;;;;;;5078456;28;20229;-87
2021/01/19 09:17:06;;;;;;;7.20;3.07;;;7.20;99.90;;;;;;5081425;28;20194;-88
2021/01/19 09:19:31;;;;;;;6.33;2.80;;;7.20;99.90;;;;;;5085832;28;20202;-87
2021/01/19 09:21:58;;;;;;;8.47;3.30;;;7.20;99.90;;;;;;5080642;28;20181;-85
2021/01/19 09:24:25;;;;;;;7.07;3.20;;;7.30;99.90;;;;;;5076465;28;20265;-86
2021/01/19 09:27:00;;;;;;;4.43;3.13;;;7.40;99.90;;;;;;5080404;28;20272;-87
2021/01/19 09:29:28;;;;;;;3.97;2.90;;;7.50;99.90;;;;;;5079575;28;20661;-87
2021/01/19 09:31:56;;;;;;;4.60;2.50;;;7.50;99.90;;;;;;5078566;28;20175;-87
2021/01/19 09:34:22;;;;;;;4.23;2.60;;;7.60;99.90;;;;;;5087587;28;20181;-87
2021/01/19 09:36:51;;;;;;;7.37;3.00;;;7.60;99.90;;;;;;5076590;28;20585;-85
2021/01/19 09:39:28;;;;;;;3.47;2.40;;;7.60;99.90;;;;;;5074273;28;20214;-88
2021/01/19 09:41:57;;;;;;;4.20;2.67;;;7.70;99.90;;;;;;5078167;28;20174;-86
2021/01/19 09:44:23;;;;;;;4.30;2.87;;;7.60;99.90;;;;;;5082733;28;20200;-87
2021/01/19 09:46:54;;;;;;;3.70;2.77;;;7.60;99.90;;;;;;5084718;28;20226;-87
2021/01/19 09:49:22;;;;;;;3.53;2.83;;;7.60;99.90;;;;;;5081863;28;20249;-86
2021/01/19 09:51:48;;;;;;;5.23;2.80;;;7.60;99.90;;;;;;5086905;28;20178;-88
2021/01/19 09:54:23;;;;;;;3.87;2.93;;;7.70;99.90;;;;;;5089238;28;20654;-88
2021/01/19 09:56:56;;;;;;;4.90;3.13;;;7.70;99.90;;;;;;5077669;28;20315;-88
2021/01/19 09:59:31;;;;;;;4.30;2.87;;;7.80;99.90;;;;;;5081595;28;20285;-87
2021/01/19 10:02:01;;;;;;;3.80;2.60;;;7.80;99.90;;;;;;5086685;28;20641;-87
2021/01/19 10:04:27;;;;;;;4.20;2.70;;;7.80;99.90;;;;;;5083486;28;20450;-87
2021/01/19 10:07:10;;;;;;;4.60;2.77;;;7.80;99.90;;;;;;5089747;28;20275;-87
2021/01/19 10:09:37;;;;;;;6.23;2.97;;;7.90;99.90;;;;;;5089301;28;20179;-85
2021/01/19 10:12:08;;;;;;;4.17;2.70;;;7.90;99.90;;;;;;5095198;28;20263;-87
2021/01/19 10:14:37;;;;;;;5.23;2.57;;;8.00;99.90;;;;;;5083161;28;20178;-87
2021/01/19 10:17:03;;;;;;;4.37;2.50;;;8.00;99.90;;;;;;5094443;28;20178;-87
2021/01/19 10:19:31;;;;;;;9.67;2.80;;;8.00;99.90;;;;;;5086460;28;20202;-86
2021/01/19 10:22:08;;;;;;;3.07;2.60;;;8.00;99.90;;;;;;5091173;28;20269;-87
2021/01/19 10:24:35;;;;;;;3.37;2.30;;;8.00;99.90;;;;;;5096409;28;20170;-86
2021/01/19 10:27:07;;;;;;;3.63;2.30;;;8.00;99.90;;;;;;5092322;28;20183;-87
2021/01/19 10:29:41;;;;;;;3.00;2.40;;;8.10;99.90;;;;;;5094683;28;20184;-87
2021/01/19 10:32:11;;;;;;;2.70;2.50;;;8.20;99.90;;;;;;5091953;28;20189;-87
2021/01/19 10:34:38;;;;;;;2.67;2.47;;;8.20;99.90;;;;;;5095904;28;20713;-86
2021/01/19 10:37:04;;;;;;;4.13;2.70;;;8.10;99.90;;;;;;5094948;28;20370;-87
2021/01/19 10:39:30;;;;;;;4.13;2.70;;;8.20;99.90;;;;;;5094475;28;20298;-86
2021/01/19 10:41:57;;;;;;;3.00;2.80;;;8.20;99.90;;;;;;5090479;28;20247;-87
2021/01/19 10:44:24;;;;;;;3.33;2.60;;;8.20;99.90;;;;;;5077160;28;20177;-87
2021/01/19 10:47:02;;;;;;;4.17;2.47;;;8.20;99.90;;;;;;5077263;28;20607;-86
2021/01/19 10:49:32;;;;;;;3.27;2.97;;;8.20;99.90;;;;;;5091068;28;20186;-87
2021/01/19 10:51:58;;;;;;;5.50;3.17;;;8.30;99.90;;;;;;5075294;28;20175;-87
2021/01/19 10:54:25;;;;;;;3.97;2.90;;;8.40;99.90;;;;;;5075662;28;20182;-85
2021/01/19 10:57:02;;;;;;;3.63;3.27;;;8.50;99.90;;;;;;5094430;28;20170;-88
2021/01/19 10:59:28;;;;;;;7.73;3.20;;;8.40;99.90;;;;;;5094416;28;20666;-87
2021/01/19 11:01:54;;;;;;;3.57;3.03;;;8.30;99.90;;;;;;5093802;28;20178;-83
2021/01/19 11:04:20;;;;;;;3.50;3.20;;;8.30;99.90;;;;;;5093815;28;20220;-84
2021/01/19 11:06:46;;;;;;;4.03;3.47;;;8.30;99.90;;;;;;5075075;28;20206;-86
2021/01/19 11:09:12;;;;;;;3.97;3.60;;;8.20;99.90;;;;;;5073840;28;20198;-89
2021/01/19 11:11:38;;;;;;;6.23;4.03;;;8.20;99.90;;;;;;5093620;28;20630;-87
2021/01/19 11:14:05;;;;;;;3.87;3.47;;;8.20;99.90;;;;;;5094038;28;20587;-87
2021/01/19 11:16:37;;;;;;;4.83;4.00;;;8.20;99.90;;;;;;5075741;28;20179;-86
2021/01/19 11:19:05;;;;;;;3.73;3.43;;;8.30;99.90;;;;;;5057168;28;20225;-86
2021/01/19 11:21:32;;;;;;;6.77;4.20;;;8.20;99.90;;;;;;5074074;28;20191;-88
2021/01/19 11:23:58;;;;;;;6.57;4.47;;;8.10;99.90;;;;;;5067655;28;20546;-86
2021/01/19 11:26:25;;;;;;;5.17;4.07;;;8.20;99.90;;;;;;5074991;28;20178;-87
2021/01/19 11:28:50;;;;;;;4.27;3.87;;;8.30;99.90;;;;;;5073490;28;20174;-88
2021/01/19 11:31:21;;;;;;;7.00;4.40;;;8.30;99.90;;;;;;5072516;28;20544;-86
2021/01/19 11:33:46;;;;;;;6.10;4.27;;;8.30;99.90;;;;;;5075130;28;20177;-86
2021/01/19 11:36:24;;;;;;;8.10;4.30;;;8.30;99.90;;;;;;5058579;28;20563;-88
2021/01/19 11:38:52;;;;;;;6.77;4.20;;;8.20;99.90;;;;;;5069523;28;20178;-85
2021/01/19 11:41:23;;;;;;;4.67;4.20;;;8.20;99.90;;;;;;5090044;28;20163;-89
2021/01/19 11:43:50;;;;;;;5.17;4.63;;;8.10;99.90;;;;;;5074394;28;20178;-88
2021/01/19 11:46:23;;;;;;;5.27;4.77;;;8.10;99.90;;;;;;5073928;28;20182;-86
2021/01/19 11:48:50;;;;;;;5.20;4.70;;;8.20;99.90;;;;;;5076335;28;20178;-87
2021/01/19 11:51:21;;;;;;;6.23;4.80;;;8.20;99.90;;;;;;5093662;28;20204;-88
2021/01/19 11:53:48;;;;;;;6.13;5.30;;;8.20;99.90;;;;;;5094094;28;20169;-85
2021/01/19 11:56:14;;;;;;;5.23;4.63;;;8.30;99.90;;;;;;5093633;28;20175;-88
2021/01/19 11:58:42;;;;;;;5.20;4.43;;;8.30;99.90;;;;;;5093295;28;20170;-87
2021/01/19 12:01:08;;;;;;;5.60;5.10;;;8.30;99.90;;;;;;5093687;28;20220;-88
2021/01/19 12:03:33;;;;;;;5.70;4.80;;;8.30;99.90;;;;;;5076396;28;20174;-87
2021/01/19 12:06:00;;;;;;;5.80;5.03;;;8.30;99.90;;;;;;5076496;28;20232;-86
2021/01/19 12:08:25;;;;;;;7.27;5.00;;;8.40;99.90;;;;;;5093611;28;20174;-87
2021/01/19 12:10:51;;;;;;;5.23;4.50;;;8.40;99.90;;;;;;5094677;28;20187;-86
2021/01/19 12:13:16;;;;;;;7.17;5.00;;;8.40;99.90;;;;;;5093086;28;20551;-88
2021/01/19 12:15:43;;;;;;;6.37;5.20;;;8.50;99.90;;;;;;5093421;28;20196;-87
2021/01/19 12:18:10;;;;;;;7.50;5.00;;;8.40;99.90;;;;;;5093210;28;20193;-87
2021/01/19 12:20:36;;;;;;;5.10;4.60;;;8.40;99.90;;;;;;5092952;28;20206;-88
2021/01/19 12:23:03;;;;;;;5.97;5.07;;;8.40;99.90;;;;;;5076145;28;20185;-88
2021/01/19 12:25:30;;;;;;;6.00;5.10;;;8.50;99.90;;;;;;5093923;28;20170;-88
2021/01/19 12:27:56;;;;;;;6.33;5.63;;;8.50;99.90;;;;;;5092808;28;20181;-87
2021/01/19 12:30:22;;;;;;;7.80;6.00;;;8.60;99.90;;;;;;5093199;28;20178;-88
2021/01/19 12:32:48;;;;;;;6.10;5.53;;;8.60;99.90;;;;;;5093151;28;20552;-88
2021/01/19 12:35:14;;;;;;;9.00;6.27;;;8.50;99.90;;;;;;5092794;28;20198;-88
2021/01/19 12:37:40;;;;;;;6.33;5.47;;;8.60;99.90;;;;;;5092464;28;20263;-87
2021/01/19 12:40:06;;;;;;;9.20;6.53;;;8.60;99.90;;;;;;5092493;28;20297;-87
2021/01/19 12:42:32;;;;;;;10.10;5.67;;;8.60;99.90;;;;;;5091876;28;20174;-87
2021/01/19 12:44:57;;;;;;;6.97;5.47;;;8.60;99.90;;;;;;5092173;28;20208;-88
2021/01/19 12:47:23;;;;;;;7.27;6.50;;;8.60;99.90;;;;;;5092456;28;20170;-88
2021/01/19 12:49:49;;;;;;;7.67;6.37;;;8.50;99.90;;;;;;5092494;28;20174;-87
2021/01/19 12:52:15;;;;;;;7.17;6.20;;;8.50;99.90;;;;;;5092500;28;20174;-86
2021/01/19 12:54:41;;;;;;;7.60;6.70;;;8.60;99.90;;;;;;5075375;28;20182;-87
2021/01/19 12:57:12;;;;;;;10.30;6.40;;;8.70;99.90;;;;;;5092576;28;20227;-87
2021/01/19 12:59:39;;;;;;;9.40;7.13;;;8.70;99.90;;;;;;5092080;28;20255;-86
2021/01/19 13:02:05;;;;;;;9.07;6.97;;;8.70;99.90;;;;;;5093407;28;20709;-89